Time;durP1;ratioP1;P1;durP2;ratioP2;P2;SDS_P1;SDS_P2;PMS_P1;PMS_P2;Temp;Humidity;BMP_temperature;BMP_pressure;BME280_temperature;BME280_humidity;BME280_pressure;Samples;Min_cycle;Max_cycle;Signal;HPM_P1;HPM_P2
2023/12/08 00:01:39;;;;;;;14.30;6.20;;;3.80;99.90;;;3.39;100.00;100378.72;5240506;28;20052;-52
2023/12/08 00:04:11;;;;;;;15.63;6.20;;;3.80;99.90;;;3.41;100.00;100366.84;5234297;28;20044;-48
2023/12/08 00:06:44;;;;;;;14.35;6.65;;;3.80;99.90;;;3.38;100.00;100370.13;5241164;28;20522;-48
2023/12/08 00:09:18;;;;;;;13.27;5.70;;;3.80;99.90;;;3.39;100.00;100355.53;5220423;28;20454;-52
2023/12/08 00:11:50;;;;;;;12.73;5.50;;;3.80;99.90;;;3.37;100.00;100347.72;5240631;28;20106;-49
2023/12/08 00:14:23;;;;;;;14.07;5.78;;;3.80;99.90;;;3.35;100.00;100344.19;5237104;28;20154;-48
2023/12/08 00:16:55;;;;;;;13.77;5.85;;;3.80;99.90;;;3.38;100.00;100334.03;5219615;28;20052;-48
2023/12/08 00:19:28;;;;;;;13.48;5.57;;;3.80;99.90;;;3.39;100.00;100324.63;5226950;28;20149;-48
2023/12/08 00:22:00;;;;;;;13.60;5.72;;;3.80;99.90;;;3.37;100.00;100315.94;5221844;28;20055;-48
2023/12/08 00:24:34;;;;;;;14.68;6.28;;;3.80;99.90;;;3.39;100.00;100333.28;5242968;28;20062;-52
2023/12/08 00:27:08;;;;;;;14.27;6.18;;;3.80;99.90;;;3.40;100.00;100327.31;5228406;28;20582;-48
2023/12/08 00:29:40;;;;;;;14.35;5.53;;;3.80;99.90;;;3.42;100.00;100319.66;5239174;28;20131;-48
2023/12/08 00:32:12;;;;;;;14.25;6.72;;;3.80;99.90;;;3.42;100.00;100310.25;5227976;28;20045;-47
2023/12/08 00:34:46;;;;;;;13.00;5.47;;;3.80;99.90;;;3.39;100.00;100304.94;5248900;28;20068;-53
2023/12/08 00:37:18;;;;;;;11.85;5.45;;;3.80;99.90;;;3.39;100.00;100309.16;5227865;28;20106;-48
2023/12/08 00:39:52;;;;;;;11.05;4.97;;;3.80;99.90;;;3.37;100.00;100296.22;5244944;28;20403;-49
2023/12/08 00:42:26;;;;;;;11.93;5.30;;;3.80;99.90;;;3.39;100.00;100299.78;5235743;28;20588;-47
2023/12/08 00:44:58;;;;;;;14.55;5.95;;;3.80;99.90;;;3.44;100.00;100279.41;5241267;28;20048;-47
2023/12/08 00:47:31;;;;;;;13.63;5.47;;;3.80;99.90;;;3.44;100.00;100302.59;5222070;28;20527;-48
2023/12/08 00:50:05;;;;;;;11.95;4.80;;;3.80;99.90;;;3.45;100.00;100327.53;5227937;28;20055;-51
2023/12/08 00:52:37;;;;;;;13.73;5.07;;;3.90;99.90;;;3.46;100.00;100322.50;5241441;28;20049;-50
2023/12/08 00:55:11;;;;;;;10.75;5.50;;;3.80;99.90;;;3.49;100.00;100325.22;5227571;28;20143;-53
2023/12/08 00:57:44;;;;;;;11.80;5.40;;;3.90;99.90;;;3.50;100.00;100324.44;5240399;28;20095;-53
2023/12/08 01:00:18;;;;;;;14.05;5.88;;;3.90;99.90;;;3.47;100.00;100292.47;5246045;28;20063;-48
2023/12/08 01:02:50;;;;;;;14.50;6.03;;;3.90;99.90;;;3.48;100.00;100297.69;5246037;28;20080;-48
2023/12/08 01:05:23;;;;;;;12.75;5.03;;;3.90;99.90;;;3.52;100.00;100316.78;5219459;28;20063;-50
2023/12/08 01:07:55;;;;;;;14.10;6.25;;;3.90;99.90;;;3.50;100.00;100327.00;5231623;28;20526;-48
2023/12/08 01:10:29;;;;;;;13.45;5.53;;;3.90;99.90;;;3.47;100.00;100316.53;5220063;28;20315;-48
2023/12/08 01:13:01;;;;;;;13.70;6.10;;;3.90;99.90;;;3.45;100.00;100284.63;5242843;28;20064;-48
2023/12/08 01:15:34;;;;;;;13.68;5.72;;;3.90;99.90;;;3.43;100.00;100268.19;5225219;28;20094;-50
2023/12/08 01:18:06;;;;;;;14.45;6.00;;;3.90;99.90;;;3.38;100.00;100230.09;5244907;28;20048;-48
2023/12/08 01:20:38;;;;;;;12.73;5.80;;;3.80;99.90;;;3.41;100.00;100276.66;5221593;28;20045;-47
2023/12/08 01:23:11;;;;;;;12.48;5.57;;;3.80;99.90;;;3.47;100.00;100308.81;5227435;28;20059;-51
2023/12/08 01:25:45;;;;;;;13.63;5.30;;;3.90;99.90;;;3.52;100.00;100307.38;5244329;28;20052;-50
2023/12/08 01:28:17;;;;;;;13.18;5.22;;;3.90;99.90;;;3.57;100.00;100320.50;5242441;28;20094;-51
2023/12/08 01:30:49;;;;;;;14.38;6.05;;;3.90;99.90;;;3.59;100.00;100298.28;5243752;28;20052;-48
2023/12/08 01:33:22;;;;;;;14.32;5.63;;;3.90;99.90;;;3.60;100.00;100305.22;5224896;28;20052;-49
2023/12/08 01:35:54;;;;;;;13.55;5.95;;;3.90;99.90;;;3.66;100.00;100296.94;5244199;28;20048;-47
2023/12/08 01:38:28;;;;;;;12.70;5.53;;;4.00;99.90;;;3.65;100.00;100293.47;5240006;28;20508;-47
2023/12/08 01:41:02;;;;;;;17.83;6.07;;;4.00;99.90;;;3.62;100.00;100275.25;5243492;28;20055;-48
2023/12/08 01:43:35;;;;;;;13.25;5.68;;;4.00;99.90;;;3.56;100.00;100267.19;5242400;28;20044;-47
2023/12/08 01:46:09;;;;;;;15.80;5.90;;;3.90;99.90;;;3.49;100.00;100263.38;5227194;28;20056;-51
2023/12/08 01:48:42;;;;;;;13.30;5.30;;;3.90;99.90;;;3.52;100.00;100260.06;5240997;28;20049;-48
2023/12/08 01:51:16;;;;;;;12.57;5.85;;;3.90;99.90;;;3.53;100.00;100257.59;5231162;28;20048;-50
2023/12/08 01:53:49;;;;;;;11.95;5.70;;;3.90;99.90;;;3.50;100.00;100249.69;5226677;28;20055;-48
2023/12/08 01:56:24;;;;;;;12.77;5.80;;;3.90;99.90;;;3.48;100.00;100247.84;5231515;28;20059;-49
2023/12/08 01:58:56;;;;;;;11.77;5.50;;;3.90;99.90;;;3.48;100.00;100264.19;5242858;28;20048;-51
2023/12/08 02:01:29;;;;;;;12.27;4.82;;;3.90;99.90;;;3.47;100.00;100248.66;5226009;28;20450;-48
2023/12/08 02:04:01;;;;;;;14.18;5.90;;;3.90;99.90;;;3.44;100.00;100238.16;5226717;28;20514;-48
2023/12/08 02:06:34;;;;;;;14.82;6.35;;;3.90;99.90;;;3.44;100.00;100245.91;5226233;28;20049;-47
2023/12/08 02:09:07;;;;;;;11.68;5.38;;;3.90;99.90;;;3.44;100.00;100251.94;5230224;28;20060;-50
2023/12/08 02:11:41;;;;;;;12.63;5.70;;;3.90;99.90;;;3.40;100.00;100239.72;5239678;28;20045;-47
2023/12/08 02:14:15;;;;;;;15.13;6.43;;;3.80;99.90;;;3.36;100.00;100226.56;5226607;28;20048;-48
2023/12/08 02:16:55;;;;;;;15.38;6.30;;;3.80;99.90;;;3.29;100.00;100240.81;5242988;28;20113;-49
2023/12/08 02:19:27;;;;;;;14.23;6.03;;;3.80;99.90;;;3.26;100.00;100230.34;5226123;28;20057;-49
2023/12/08 02:22:00;;;;;;;15.48;6.53;;;3.70;99.90;;;3.18;100.00;100227.31;5231962;28;20060;-47
2023/12/08 02:24:34;;;;;;;15.10;6.07;;;3.70;99.90;;;3.16;100.00;100230.63;5240391;28;20056;-48
2023/12/08 02:27:08;;;;;;;13.60;6.22;;;3.60;99.90;;;3.13;100.00;100222.72;5226303;28;20048;-48
2023/12/08 02:29:40;;;;;;;16.00;6.65;;;3.60;99.90;;;3.15;100.00;100208.25;5231506;28;20403;-47
2023/12/08 02:32:22;;;;;;;14.50;7.07;;;3.60;99.90;;;3.09;100.00;100215.66;5225044;28;20052;-50
2023/12/08 02:34:58;;;;;;;14.70;6.70;;;3.60;99.90;;;3.10;100.00;100200.28;5232412;28;20083;-47
2023/12/08 02:37:36;;;;;;;19.85;6.90;;;3.50;99.90;;;3.10;100.00;100202.84;5242271;28;20052;-48
2023/12/08 02:40:11;;;;;;;17.52;7.03;;;3.50;99.90;;;3.07;100.00;100200.13;5227419;28;20040;-47
2023/12/08 02:42:43;;;;;;;12.25;5.45;;;3.50;99.90;;;3.10;100.00;100208.00;5236871;28;20060;-49
2023/12/08 02:45:16;;;;;;;16.38;6.45;;;3.50;99.90;;;3.09;100.00;100200.19;5225326;28;20052;-52
2023/12/08 02:47:48;;;;;;;16.83;6.32;;;3.50;99.90;;;3.10;100.00;100196.81;5245057;28;20056;-48
2023/12/08 02:50:20;;;;;;;14.50;6.13;;;3.50;99.90;;;3.13;100.00;100192.72;5225720;28;20045;-48
2023/12/08 02:52:53;;;;;;;14.73;6.28;;;3.50;99.90;;;3.10;100.00;100181.34;5248016;28;20048;-47
2023/12/08 02:55:27;;;;;;;17.73;6.82;;;3.50;99.90;;;3.10;100.00;100171.06;5225528;28;20052;-48
2023/12/08 02:57:59;;;;;;;13.68;6.15;;;3.60;99.90;;;3.09;100.00;100174.44;5221789;28;20064;-47
2023/12/08 03:00:31;;;;;;;14.88;5.82;;;3.60;99.90;;;3.13;100.00;100177.28;5238721;28;20072;-49
2023/12/08 03:03:04;;;;;;;16.05;6.35;;;3.60;99.90;;;3.17;100.00;100168.00;5229574;28;20048;-47
2023/12/08 03:05:36;;;;;;;14.13;6.03;;;3.60;99.90;;;3.16;100.00;100164.56;5241416;28;20063;-53
2023/12/08 03:08:09;;;;;;;18.90;6.43;;;3.60;99.90;;;3.17;100.00;100152.56;5240954;28;20068;-50
2023/12/08 03:10:43;;;;;;;14.43;6.60;;;3.60;99.90;;;3.14;100.00;100147.25;5241093;28;20060;-49
2023/12/08 03:13:15;;;;;;;14.20;5.95;;;3.60;99.90;;;3.17;100.00;100144.84;5225279;28;20122;-49
2023/12/08 03:15:47;;;;;;;13.18;5.70;;;3.60;99.90;;;3.13;100.00;100141.22;5238310;28;20052;-49
2023/12/08 03:18:20;;;;;;;14.10;6.32;;;3.60;99.90;;;3.10;100.00;100142.72;5224892;28;20052;-48
2023/12/08 03:20:53;;;;;;;15.82;6.55;;;3.60;99.90;;;3.12;100.00;100133.38;5221603;28;20057;-50
2023/12/08 03:23:25;;;;;;;16.02;6.15;;;3.60;99.90;;;3.12;100.00;100112.78;5231416;28;20332;-52
2023/12/08 03:25:59;;;;;;;15.65;6.60;;;3.60;99.90;;;3.10;100.00;100111.84;5231309;28;20511;-50
2023/12/08 03:28:31;;;;;;;12.38;6.40;;;3.60;99.90;;;3.07;100.00;100114.25;5243154;28;20501;-52
2023/12/08 03:31:04;;;;;;;16.40;6.43;;;3.50;99.90;;;3.04;100.00;100114.06;5241241;28;20045;-50
2023/12/08 03:33:36;;;;;;;16.77;6.85;;;3.50;99.90;;;3.02;100.00;100113.13;5239088;28;20500;-48
2023/12/08 03:36:10;;;;;;;18.15;6.72;;;3.50;99.90;;;3.01;100.00;100108.78;5225098;28;20052;-47
2023/12/08 03:38:42;;;;;;;14.07;6.40;;;3.50;99.90;;;3.03;100.00;100112.31;5241795;28;20045;-51
2023/12/08 03:41:16;;;;;;;15.15;6.65;;;3.50;99.90;;;3.03;100.00;100120.03;5240389;28;20048;-48
2023/12/08 03:43:48;;;;;;;14.90;6.72;;;3.50;99.90;;;3.04;100.00;100119.22;5230978;28;20052;-49
2023/12/08 03:46:21;;;;;;;17.13;6.47;;;3.50;99.90;;;2.95;100.00;100105.06;5224103;28;20040;-49
2023/12/08 03:48:53;;;;;;;17.25;7.53;;;3.40;99.90;;;2.95;100.00;100112.78;5227781;28;20044;-48
2023/12/08 03:51:25;;;;;;;16.00;6.90;;;3.40;99.90;;;2.95;100.00;100115.38;5227781;28;20052;-48
2023/12/08 03:53:58;;;;;;;16.50;6.28;;;3.40;99.90;;;2.94;100.00;100103.28;5243652;28;20052;-48
2023/12/08 03:56:32;;;;;;;16.52;7.00;;;3.40;99.90;;;2.90;100.00;100095.31;5232365;28;20453;-51
2023/12/08 03:59:04;;;;;;;17.23;6.57;;;3.40;99.90;;;2.85;100.00;100097.63;5242870;28;20118;-46
2023/12/08 04:01:36;;;;;;;16.60;6.65;;;3.40;99.90;;;2.79;100.00;100093.84;5231861;28;20056;-52
2023/12/08 04:04:10;;;;;;;15.75;7.15;;;3.30;99.90;;;2.74;100.00;100101.34;5228646;28;20519;-50
2023/12/08 04:06:42;;;;;;;16.38;7.22;;;3.30;99.90;;;2.71;100.00;100109.75;5243418;28;20071;-47
2023/12/08 04:09:14;;;;;;;15.88;6.28;;;3.20;99.90;;;2.72;100.00;100119.25;5240801;28;20408;-47
2023/12/08 04:11:48;;;;;;;16.73;6.97;;;3.20;99.90;;;2.67;100.00;100117.22;5222210;28;20106;-50
2023/12/08 04:14:21;;;;;;;19.17;7.63;;;3.20;99.90;;;2.67;100.00;100123.28;5240659;28;20059;-47
2023/12/08 04:16:53;;;;;;;19.20;8.35;;;3.20;99.90;;;2.65;100.00;100118.81;5224332;28;20057;-52
2023/12/08 04:19:25;;;;;;;16.20;7.15;;;3.20;99.90;;;2.66;100.00;100126.63;5237468;28;20504;-51
2023/12/08 04:21:58;;;;;;;16.50;7.30;;;3.20;99.90;;;2.67;100.00;100131.00;5238777;28;20049;-49
2023/12/08 04:24:30;;;;;;;18.27;7.38;;;3.20;99.90;;;2.69;100.00;100128.50;5238506;28;20048;-48
2023/12/08 04:27:04;;;;;;;17.70;7.15;;;3.20;99.90;;;2.68;100.00;100129.31;5238393;28;20048;-48
2023/12/08 04:29:37;;;;;;;18.15;7.72;;;3.20;99.90;;;2.68;100.00;100135.34;5241218;28;20047;-48
2023/12/08 04:32:09;;;;;;;17.25;7.85;;;3.20;99.90;;;2.65;100.00;100127.41;5223703;28;20059;-47
2023/12/08 04:34:42;;;;;;;18.27;7.30;;;3.20;99.90;;;2.66;100.00;100123.16;5240163;28;20053;-52
2023/12/08 04:37:14;;;;;;;18.52;7.15;;;3.20;99.90;;;2.65;100.00;100123.97;5224527;28;20040;-49
2023/12/08 04:39:47;;;;;;;16.73;7.70;;;3.10;99.90;;;2.67;100.00;100127.50;5239748;28;20415;-47
2023/12/08 04:42:21;;;;;;;16.23;7.85;;;3.20;99.90;;;2.67;100.00;100137.78;5240803;28;20048;-46
2023/12/08 04:44:53;;;;;;;22.98;8.05;;;3.10;99.90;;;2.69;100.00;100143.94;5233717;28;20036;-47
2023/12/08 04:47:25;;;;;;;20.10;8.00;;;3.10;99.90;;;2.72;100.00;100147.53;5229462;28;20045;-48
2023/12/08 04:49:59;;;;;;;17.88;8.10;;;3.20;99.90;;;2.75;100.00;100144.28;5242904;28;20059;-48
2023/12/08 04:52:32;;;;;;;16.10;7.97;;;3.20;99.90;;;2.78;100.00;100149.59;5239145;28;20091;-48
2023/12/08 04:55:05;;;;;;;19.13;7.82;;;3.20;99.90;;;2.80;100.00;100155.69;5222328;28;20885;-48
2023/12/08 04:57:39;;;;;;;19.25;8.43;;;3.20;99.90;;;2.83;100.00;100155.88;5237665;28;20052;-48
2023/12/08 05:00:12;;;;;;;18.90;8.57;;;3.20;99.90;;;2.85;100.00;100158.53;5239020;28;20037;-48
2023/12/08 05:02:45;;;;;;;18.98;8.68;;;3.30;99.90;;;2.85;100.00;100164.56;5238877;28;20044;-50
2023/12/08 05:05:17;;;;;;;16.00;7.18;;;3.30;99.90;;;2.93;100.00;100171.03;5240010;28;20059;-49
2023/12/08 05:07:50;;;;;;;18.42;7.97;;;3.30;99.90;;;2.98;100.00;100167.00;5227637;28;20044;-47
2023/12/08 05:10:22;;;;;;;27.98;13.75;;;3.40;99.90;;;2.97;100.00;100164.34;5225490;28;20063;-48
2023/12/08 05:12:56;;;;;;;24.52;12.98;;;3.30;99.90;;;2.94;100.00;100153.91;5237286;28;20044;-47
2023/12/08 05:15:29;;;;;;;21.10;9.45;;;3.30;99.90;;;2.92;100.00;100156.38;5247504;28;20063;-48
2023/12/08 05:18:01;;;;;;;23.27;8.68;;;3.40;99.90;;;2.92;100.00;100156.38;5266186;28;20322;-52
2023/12/08 05:20:33;;;;;;;16.17;7.82;;;3.30;99.90;;;2.92;100.00;100160.63;5261675;28;20044;-50
2023/12/08 05:23:06;;;;;;;19.92;8.02;;;3.30;99.90;;;2.93;100.00;100157.25;5248154;28;20067;-48
2023/12/08 05:25:38;;;;;;;18.50;7.45;;;3.40;99.90;;;2.94;100.00;100157.34;5264922;28;20054;-52
2023/12/08 05:28:12;;;;;;;18.48;8.20;;;3.30;99.90;;;2.94;100.00;100148.75;5248408;28;20510;-47
2023/12/08 05:30:44;;;;;;;17.00;7.18;;;3.40;99.90;;;2.95;100.00;100148.84;5262615;28;20503;-48
2023/12/08 05:33:17;;;;;;;19.30;8.32;;;3.30;99.90;;;2.95;100.00;100143.69;5264391;28;20101;-48
2023/12/08 05:35:49;;;;;;;21.67;8.73;;;3.30;99.90;;;2.92;100.00;100135.78;5251764;28;20602;-47
2023/12/08 05:38:21;;;;;;;18.00;8.13;;;3.30;99.90;;;2.88;100.00;100127.81;5264660;28;20387;-49
2023/12/08 05:40:54;;;;;;;20.52;8.63;;;3.30;99.90;;;2.87;100.00;100126.94;5248279;28;20047;-47
2023/12/08 05:43:28;;;;;;;20.30;8.48;;;3.30;99.90;;;2.86;100.00;100124.25;5260848;28;20056;-54
2023/12/08 05:46:02;;;;;;;20.92;8.88;;;3.30;99.90;;;2.86;100.00;100129.41;5264824;28;20066;-48
2023/12/08 05:48:34;;;;;;;18.65;8.07;;;3.30;99.90;;;2.87;100.00;100131.16;5254461;28;20188;-49
2023/12/08 05:51:07;;;;;;;20.90;8.90;;;3.30;99.90;;;2.88;100.00;100127.81;5263674;28;20842;-50
2023/12/08 05:53:40;;;;;;;19.25;7.53;;;3.30;99.90;;;2.91;100.00;100127.97;5252291;28;20077;-48
2023/12/08 05:56:12;;;;;;;18.10;7.97;;;3.30;99.90;;;2.96;100.00;100132.56;5257395;28;20047;-48
2023/12/08 05:58:46;;;;;;;20.42;8.45;;;3.30;99.90;;;3.00;100.00;100138.78;5259793;28;20048;-47
2023/12/08 06:01:19;;;;;;;21.73;8.45;;;3.40;99.90;;;3.00;100.00;100133.66;5247739;28;20043;-48
2023/12/08 06:03:52;;;;;;;19.45;8.30;;;3.40;99.90;;;3.01;100.00;100134.53;5255193;28;20048;-48
2023/12/08 06:06:27;;;;;;;19.20;8.40;;;3.40;99.90;;;3.02;100.00;100126.00;5259864;28;20045;-48
2023/12/08 06:08:59;;;;;;;19.30;8.55;;;3.40;99.90;;;3.03;100.00;100136.38;5257252;28;20044;-48
2023/12/08 06:11:32;;;;;;;18.52;7.78;;;3.40;99.90;;;3.06;100.00;100141.66;5248882;28;20059;-48
2023/12/08 06:14:06;;;;;;;17.83;7.82;;;3.40;99.90;;;3.09;100.00;100148.69;5266423;28;20051;-48
2023/12/08 06:16:38;;;;;;;14.57;6.80;;;3.40;99.90;;;3.12;100.00;100154.00;5261210;28;20044;-47
2023/12/08 06:19:11;;;;;;;17.98;7.50;;;3.50;99.90;;;3.15;100.00;100160.22;5247703;28;20082;-48
2023/12/08 06:21:44;;;;;;;16.92;8.00;;;3.50;99.90;;;3.17;100.00;100158.59;5260550;28;20051;-50
2023/12/08 06:24:17;;;;;;;17.60;8.27;;;3.50;99.90;;;3.18;100.00;100159.47;5263518;28;20051;-49
2023/12/08 06:26:49;;;;;;;24.35;10.43;;;3.50;99.90;;;3.16;100.00;100148.22;5262341;28;20139;-47
2023/12/08 06:29:23;;;;;;;19.02;9.07;;;3.50;99.90;;;3.15;100.00;100149.03;5257233;28;20036;-49
2023/12/08 06:31:55;;;;;;;18.48;8.13;;;3.50;99.90;;;3.11;100.00;100157.38;5255484;28;20051;-48
2023/12/08 06:34:27;;;;;;;19.48;8.63;;;3.50;99.90;;;3.10;100.00;100161.66;5260267;28;20051;-48
2023/12/08 06:37:00;;;;;;;19.63;8.50;;;3.50;99.90;;;3.14;100.00;100157.56;5262989;28;20466;-47
2023/12/08 06:39:32;;;;;;;17.40;7.88;;;3.50;99.90;;;3.16;100.00;100156.81;5259891;28;20048;-50
2023/12/08 06:42:05;;;;;;;24.33;9.40;;;3.50;99.90;;;3.15;100.00;100155.06;5260743;28;20044;-47
2023/12/08 06:44:40;;;;;;;19.35;8.20;;;3.60;99.90;;;3.17;100.00;100158.59;5261869;28;20047;-51
2023/12/08 06:47:12;;;;;;;18.55;8.18;;;3.50;99.90;;;3.19;100.00;100156.09;5264955;28;20048;-49
2023/12/08 06:49:45;;;;;;;20.73;9.10;;;3.60;99.90;;;3.17;100.00;100157.72;5249577;28;20044;-51
2023/12/08 06:52:17;;;;;;;20.40;10.48;;;3.50;99.90;;;3.16;100.00;100161.09;5261825;28;20144;-50
2023/12/08 06:54:51;;;;;;;22.45;8.80;;;3.60;99.90;;;3.18;100.00;100167.19;5243435;28;20055;-47
2023/12/08 06:57:23;;;;;;;19.58;8.55;;;3.50;99.90;;;3.18;100.00;100172.34;5259514;28;20049;-49
2023/12/08 06:59:57;;;;;;;20.63;8.52;;;3.60;99.90;;;3.20;100.00;100160.47;5259660;28;20041;-50
2023/12/08 07:02:29;;;;;;;20.30;8.40;;;3.60;99.90;;;3.21;100.00;100169.97;5247528;28;20093;-49
2023/12/08 07:05:02;;;;;;;20.40;8.45;;;3.60;99.90;;;3.20;100.00;100169.09;5260358;28;20048;-48
2023/12/08 07:07:34;;;;;;;20.23;8.73;;;3.60;99.90;;;3.18;100.00;100165.50;5259601;28;20040;-52
2023/12/08 07:10:08;;;;;;;23.63;10.02;;;3.60;99.90;;;3.22;100.00;100161.44;5256704;28;20047;-48
2023/12/08 07:12:40;;;;;;;25.25;9.25;;;3.60;99.90;;;3.23;100.00;100163.19;5254508;28;20406;-47
2023/12/08 07:15:14;;;;;;;20.27;8.95;;;3.60;99.90;;;3.21;100.00;100164.81;5256381;28;20044;-48
2023/12/08 07:17:47;;;;;;;20.67;8.98;;;3.60;99.90;;;3.23;100.00;100168.34;5260352;28;20056;-48
2023/12/08 07:20:19;;;;;;;19.13;8.68;;;3.60;99.90;;;3.25;100.00;100167.59;5258225;28;20045;-47
2023/12/08 07:22:52;;;;;;;20.30;9.45;;;3.60;99.90;;;3.24;100.00;100173.56;5255408;28;20779;-50
2023/12/08 07:25:24;;;;;;;20.02;9.10;;;3.70;99.90;;;3.26;100.00;100182.28;5246387;28;20130;-51
2023/12/08 07:27:56;;;;;;;18.98;8.10;;;3.70;99.90;;;3.31;100.00;100166.19;5253226;28;20083;-49
2023/12/08 07:30:30;;;;;;;22.02;9.35;;;3.70;99.90;;;3.32;100.00;100167.94;5258854;28;20496;-48
2023/12/08 07:33:03;;;;;;;20.05;8.82;;;3.70;99.90;;;3.31;100.00;100182.50;5251898;28;20059;-51
2023/12/08 07:35:36;;;;;;;22.55;9.43;;;3.70;99.90;;;3.35;100.00;100173.28;5258978;28;20114;-49
2023/12/08 07:38:08;;;;;;;23.00;9.05;;;3.70;99.90;;;3.38;100.00;100164.00;5253803;28;20803;-52
2023/12/08 07:40:41;;;;;;;20.90;7.85;;;3.70;99.90;;;3.40;100.00;100177.88;5259919;28;20515;-49
2023/12/08 07:43:13;;;;;;;19.25;8.20;;;3.70;99.90;;;3.39;100.00;100163.22;5244981;28;20054;-49
2023/12/08 07:45:47;;;;;;;19.85;8.50;;;3.80;99.90;;;3.42;100.00;100171.09;5243051;28;20052;-48
2023/12/08 07:48:19;;;;;;;25.38;8.73;;;3.80;99.90;;;3.42;100.00;100176.25;5262740;28;20134;-49
2023/12/08 07:50:52;;;;;;;23.52;8.95;;;3.80;99.90;;;3.42;100.00;100178.84;5258969;28;20048;-48
2023/12/08 07:53:24;;;;;;;18.23;7.78;;;3.80;99.90;;;3.48;100.00;100176.59;5252814;28;20399;-48
2023/12/08 07:55:56;;;;;;;20.27;8.93;;;3.80;99.90;;;3.50;100.00;100169.81;5252095;28;20052;-48
2023/12/08 07:58:29;;;;;;;21.52;8.77;;;3.90;99.90;;;3.47;100.00;100169.66;5258905;28;20700;-47
2023/12/08 08:01:03;;;;;;;21.00;9.27;;;3.90;99.90;;;3.45;100.00;100172.94;5259168;28;20106;-51
2023/12/08 08:03:35;;;;;;;23.00;10.00;;;3.90;99.90;;;3.47;100.00;100179.97;5252290;28;20445;-50
2023/12/08 08:06:09;;;;;;;20.98;8.98;;;3.90;99.90;;;3.49;100.00;100180.94;5258059;28;20102;-50
2023/12/08 08:08:41;;;;;;;21.80;9.13;;;3.90;99.90;;;3.49;100.00;100186.09;5258294;28;20086;-48
2023/12/08 08:11:14;;;;;;;22.25;9.85;;;3.90;99.90;;;3.48;100.00;100186.88;5261250;28;20557;-49
2023/12/08 08:13:46;;;;;;;21.67;8.95;;;3.90;99.90;;;3.51;100.00;100187.03;5258681;28;20569;-50
2023/12/08 08:16:20;;;;;;;20.77;8.73;;;3.90;99.90;;;3.54;100.00;100187.22;5256668;28;20040;-49
2023/12/08 08:18:52;;;;;;;18.38;8.05;;;3.90;99.90;;;3.61;100.00;100195.28;5258988;28;20056;-49
2023/12/08 08:21:24;;;;;;;19.00;7.88;;;3.90;99.90;;;3.64;100.00;100206.63;5261717;28;20392;-48
2023/12/08 08:23:57;;;;;;;17.83;8.50;;;4.00;99.90;;;3.66;100.00;100202.44;5237094;28;20062;-49
2023/12/08 08:26:29;;;;;;;21.52;8.73;;;4.00;99.90;;;3.70;100.00;100198.31;5259542;28;20048;-48
2023/12/08 08:29:02;;;;;;;21.08;8.00;;;4.00;99.90;;;3.72;100.00;100205.34;5243279;28;20139;-49
2023/12/08 08:31:35;;;;;;;17.50;7.70;;;4.10;99.90;;;3.76;100.00;100198.66;5244673;28;20040;-51
2023/12/08 08:34:08;;;;;;;17.35;8.10;;;4.10;99.90;;;3.79;100.00;100197.13;5254009;28;20454;-48
2023/12/08 08:36:40;;;;;;;17.65;7.88;;;4.10;99.90;;;3.81;100.00;100197.19;5259257;28;20051;-51
2023/12/08 08:39:14;;;;;;;15.52;7.80;;;4.10;99.90;;;3.82;100.00;100204.13;5243195;28;20507;-51
2023/12/08 08:41:48;;;;;;;19.35;7.78;;;4.10;99.90;;;3.82;100.00;100204.13;5258388;28;20051;-52
2023/12/08 08:44:20;;;;;;;20.52;9.05;;;4.20;99.90;;;3.80;100.00;100206.63;5261792;28;20044;-48
2023/12/08 08:46:54;;;;;;;19.35;8.23;;;4.20;99.90;;;3.82;100.00;100204.13;5246998;28;20117;-49
2023/12/08 08:49:26;;;;;;;19.75;8.63;;;4.20;99.90;;;3.83;100.00;100197.28;5257181;28;20054;-49
2023/12/08 08:51:59;;;;;;;17.60;7.63;;;4.20;99.90;;;3.88;100.00;100193.25;5246194;28;20495;-48
2023/12/08 08:54:31;;;;;;;21.40;9.77;;;4.20;99.90;;;3.88;100.00;100198.41;5255342;28;20704;-48
2023/12/08 08:57:04;;;;;;;19.23;8.32;;;4.20;99.90;;;3.89;100.00;100201.06;5257948;28;20503;-52
2023/12/08 08:59:37;;;;;;;15.48;7.03;;;4.20;99.90;;;3.94;100.00;100209.03;5265894;28;20052;-49
2023/12/08 09:02:10;;;;;;;18.73;8.70;;;4.20;99.90;;;3.93;100.00;100213.31;5262769;28;20048;-48
2023/12/08 09:04:43;;;;;;;20.48;8.57;;;4.30;99.90;;;3.95;100.00;100203.06;5248397;28;20498;-50
2023/12/08 09:07:15;;;;;;;17.83;7.43;;;4.30;99.90;;;3.97;100.00;100210.06;5242642;28;20134;-48
2023/12/08 09:09:47;;;;;;;21.27;8.30;;;4.30;99.90;;;4.00;100.00;100210.25;5263289;28;20056;-49
2023/12/08 09:12:20;;;;;;;20.55;8.38;;;4.30;99.90;;;4.02;100.00;100221.50;5264834;28;20392;-52
2023/12/08 09:14:52;;;;;;;17.40;8.20;;;4.30;99.90;;;4.03;100.00;100220.69;5263132;28;20079;-50
2023/12/08 09:17:26;;;;;;;19.33;8.30;;;4.30;99.90;;;4.04;100.00;100225.06;5243443;28;20414;-48
2023/12/08 09:19:58;;;;;;;19.98;8.50;;;4.40;99.90;;;4.02;100.00;100228.38;5246706;28;20491;-49
2023/12/08 09:22:31;;;;;;;18.63;8.05;;;4.40;99.90;;;4.04;100.00;100227.66;5261383;28;20450;-50
2023/12/08 09:25:05;;;;;;;17.95;9.02;;;4.40;99.90;;;4.04;100.00;100227.66;5260653;28;20466;-48
2023/12/08 09:27:38;;;;;;;19.45;8.05;;;4.40;99.90;;;4.05;100.00;100234.59;5249078;28;20040;-49
2023/12/08 09:30:11;;;;;;;17.80;8.20;;;4.40;99.90;;;4.07;100.00;100237.22;5262689;28;20044;-53
2023/12/08 09:32:45;;;;;;;20.23;8.98;;;4.40;99.90;;;4.09;100.00;100233.91;5262810;28;20044;-50
2023/12/08 09:35:18;;;;;;;17.08;7.47;;;4.40;99.90;;;4.14;100.00;100238.44;5248433;28;20082;-49
2023/12/08 09:37:50;;;;;;;15.23;6.82;;;4.40;99.90;;;4.16;100.00;100239.38;5255839;28;20549;-48
2023/12/08 09:40:24;;;;;;;18.05;8.32;;;4.50;99.90;;;4.17;100.00;100229.13;5264691;28;20059;-50
2023/12/08 09:42:59;;;;;;;18.92;7.53;;;4.50;99.90;;;4.20;100.00;100236.16;5255116;28;20129;-47
2023/12/08 09:45:32;;;;;;;19.25;9.35;;;4.50;99.90;;;4.17;100.00;100243.72;5261512;28;20515;-49
2023/12/08 09:48:07;;;;;;;21.35;8.52;;;4.50;99.90;;;4.18;100.00;100240.38;5260587;28;20044;-49
2023/12/08 09:50:41;;;;;;;21.15;8.98;;;4.50;99.90;;;4.16;100.00;100244.56;5246166;28;20036;-49
2023/12/08 09:53:13;;;;;;;20.38;8.32;;;4.50;99.90;;;4.17;100.00;100243.72;5262204;28;20830;-48
2023/12/08 09:55:47;;;;;;;22.48;9.00;;;4.50;99.90;;;4.18;100.00;100240.38;5263161;28;20473;-50
2023/12/08 09:58:20;;;;;;;23.73;9.55;;;4.50;99.90;;;4.17;100.00;100241.16;5243109;28;20036;-48
2023/12/08 10:00:53;;;;;;;19.67;8.82;;;4.50;99.90;;;4.16;100.00;100234.22;5262752;28;20051;-49
2023/12/08 10:03:26;;;;;;;21.98;9.57;;;4.50;99.90;;;4.15;100.00;100235.03;5244634;28;20063;-49
2023/12/08 10:05:59;;;;;;;21.48;8.73;;;4.50;99.90;;;4.20;100.00;100231.00;5256360;28;20048;-48
2023/12/08 10:08:32;;;;;;;21.63;11.10;;;4.50;99.90;;;4.25;100.00;100237.31;5252996;28;20044;-51
2023/12/08 10:11:05;;;;;;;21.08;9.50;;;4.60;99.90;;;4.28;100.00;100240.03;5244033;28;20036;-48
2023/12/08 10:13:38;;;;;;;22.45;9.80;;;4.60;99.90;;;4.32;100.00;100244.53;5261599;28;20130;-49
2023/12/08 10:16:11;;;;;;;20.95;10.35;;;4.70;99.90;;;4.38;100.00;100243.97;5257939;28;20131;-52
2023/12/08 10:18:44;;;;;;;20.98;9.07;;;4.70;99.90;;;4.41;100.00;100239.84;5246090;28;20055;-47
2023/12/08 10:21:19;;;;;;;19.42;8.45;;;4.70;99.90;;;4.74;100.00;100235.44;5237043;28;20044;-50
2023/12/08 10:24:00;;;;;;;19.73;9.00;;;4.90;99.90;;;4.76;100.00;100238.09;5260250;28;20058;-49
2023/12/08 10:26:33;;;;;;;18.77;8.57;;;5.00;99.90;;;4.76;100.00;100243.25;5236774;28;20044;-50
2023/12/08 10:29:06;;;;;;;23.08;8.93;;;5.00;99.90;;;4.85;100.00;100236.88;5241792;28;20503;-49
2023/12/08 10:31:40;;;;;;;19.30;7.95;;;5.10;99.90;;;4.86;100.00;100235.16;5256296;28;20048;-53
2023/12/08 10:34:15;;;;;;;18.65;8.02;;;5.10;99.90;;;5.53;100.00;100233.19;5264841;28;20530;-51
2023/12/08 10:36:48;;;;;;;16.52;7.85;;;5.60;99.90;;;5.53;100.00;100240.06;5261054;28;20059;-53